createdAt,value
2022-11-26T00:00:29.258Z,1.92
2022-11-26T00:02:57.310Z,2.35
2022-11-26T00:05:25.840Z,1.65
2022-11-26T00:07:57.102Z,1.65
2022-11-26T00:10:29.046Z,1.55
2022-11-26T00:12:57.931Z,2.53
2022-11-26T00:15:27.256Z,2.15
2022-11-26T00:17:55.575Z,1.88
2022-11-26T00:20:25.736Z,1.95
2022-11-26T00:22:55.452Z,1.70
2022-11-26T00:25:28.113Z,2.08
2022-11-26T00:27:59.056Z,1.67
2022-11-26T00:30:29.554Z,1.95
2022-11-26T00:32:57.463Z,1.88
2022-11-26T00:35:25.104Z,2.00
2022-11-26T00:37:56.220Z,1.70
2022-11-26T00:40:27.498Z,1.63
2022-11-26T00:43:01.625Z,1.70
2022-11-26T00:45:32.006Z,1.50
2022-11-26T00:48:01.552Z,10.00
2022-11-26T00:50:34.887Z,5.18
2022-11-26T00:53:02.555Z,4.50
2022-11-26T00:55:35.221Z,4.78
2022-11-26T00:58:03.122Z,5.67
2022-11-26T01:00:33.213Z,5.13
2022-11-26T01:03:01.765Z,4.05
2022-11-26T01:05:33.370Z,2.53
2022-11-26T01:08:08.081Z,2.45
2022-11-26T01:10:37.068Z,1.92
2022-11-26T01:13:04.748Z,2.60
2022-11-26T01:15:32.379Z,1.75
2022-11-26T01:18:00.052Z,2.70
2022-11-26T01:20:29.929Z,2.28
2022-11-26T01:22:59.460Z,1.70
2022-11-26T01:25:28.473Z,2.15
2022-11-26T01:27:57.418Z,2.05
2022-11-26T01:30:27.206Z,2.08
2022-11-26T01:32:54.902Z,2.05
2022-11-26T01:35:23.206Z,1.85
2022-11-26T01:37:50.961Z,2.20
2022-11-26T01:40:32.132Z,1.83
2022-11-26T01:43:07.372Z,1.90
2022-11-26T01:45:35.094Z,2.03
2022-11-26T01:48:03.005Z,2.70
2022-11-26T01:50:53.592Z,1.90
2022-11-26T01:53:38.821Z,2.00
2022-11-26T01:56:14.542Z,1.98
2022-11-26T01:58:47.338Z,1.73
2022-11-26T02:01:15.084Z,2.30
2022-11-26T02:03:50.836Z,2.13
2022-11-26T02:06:23.362Z,1.77
2022-11-26T02:08:50.977Z,2.00
2022-11-26T02:11:20.998Z,1.92
2022-11-26T02:13:53.772Z,1.98
2022-11-26T02:16:35.359Z,2.13
2022-11-26T02:19:22.506Z,1.75
2022-11-26T02:21:57.921Z,2.15
2022-11-26T02:24:39.897Z,2.05
2022-11-26T02:27:28.726Z,2.28
2022-11-26T02:30:12.114Z,2.13
2022-11-26T02:32:57.379Z,1.85
2022-11-26T02:35:33.631Z,2.15
2022-11-26T02:38:06.079Z,1.90
2022-11-26T02:40:34.026Z,2.03
2022-11-26T02:43:01.775Z,1.83
2022-11-26T02:45:35.026Z,2.17
2022-11-26T02:48:07.540Z,2.00
2022-11-26T02:57:14.545Z,1.88
2022-11-26T02:59:43.189Z,1.83
2022-11-26T03:02:16.993Z,2.10
2022-11-26T03:04:48.543Z,2.22
2022-11-26T03:07:18.712Z,2.45
2022-11-26T03:09:52.070Z,2.08
2022-11-26T03:12:19.701Z,1.83
2022-11-26T03:14:47.464Z,2.13
2022-11-26T03:17:16.818Z,2.80
2022-11-26T03:19:44.574Z,1.90
2022-11-26T03:22:12.786Z,1.92
2022-11-26T03:24:40.968Z,1.92
2022-11-26T03:27:08.771Z,2.10
2022-11-26T03:29:36.348Z,2.00
2022-11-26T03:32:04.180Z,2.40
2022-11-26T03:34:33.257Z,1.70
2022-11-26T03:37:00.884Z,2.15
2022-11-26T03:39:28.531Z,3.13
2022-11-26T03:41:56.159Z,2.20
2022-11-26T03:44:23.757Z,1.90
2022-11-26T03:46:51.405Z,2.20
2022-11-26T03:49:19.010Z,2.08
2022-11-26T03:51:47.935Z,3.92
2022-11-26T03:54:15.640Z,2.42
2022-11-26T03:56:43.296Z,2.65
2022-11-26T03:59:10.874Z,3.35
2022-11-26T04:01:39.604Z,2.50
2022-11-26T04:04:07.210Z,2.40
2022-11-26T04:06:34.861Z,1.95
2022-11-26T04:09:04.043Z,1.92
2022-11-26T04:11:31.765Z,2.95
2022-11-26T04:13:59.404Z,2.42
2022-11-26T04:16:27.176Z,2.03
2022-11-26T04:18:55.772Z,1.50
2022-11-26T04:21:23.434Z,2.40
2022-11-26T04:23:51.043Z,2.85
2022-11-26T04:26:20.064Z,2.10
2022-11-26T04:28:47.689Z,2.10
2022-11-26T04:31:15.420Z,1.95
2022-11-26T04:33:43.160Z,2.13
2022-11-26T04:36:11.100Z,2.40
2022-11-26T04:38:39.005Z,2.55
2022-11-26T04:41:06.905Z,2.95
2022-11-26T04:43:35.885Z,3.60
2022-11-26T04:46:03.512Z,2.80
2022-11-26T04:48:31.193Z,2.65
2022-11-26T04:50:58.922Z,2.17
2022-11-26T04:53:26.612Z,2.45
2022-11-26T04:55:54.243Z,2.35
2022-11-26T04:58:22.106Z,2.13
2022-11-26T05:00:51.701Z,2.50
2022-11-26T05:03:19.935Z,2.85
2022-11-26T05:05:47.986Z,2.10
2022-11-26T05:08:15.756Z,2.95
2022-11-26T05:10:43.396Z,2.35
2022-11-26T05:13:11.128Z,10.15
2022-11-26T05:15:39.071Z,13.02
2022-11-26T05:18:08.052Z,9.00
2022-11-26T05:20:35.634Z,4.97
2022-11-26T05:23:03.276Z,6.45
2022-11-26T05:25:30.854Z,8.02
2022-11-26T05:27:58.402Z,9.35
2022-11-26T05:30:26.028Z,10.93
2022-11-26T05:32:53.715Z,8.63
2022-11-26T05:35:22.772Z,5.78
2022-11-26T05:37:50.440Z,5.60
2022-11-26T05:40:18.062Z,5.78
2022-11-26T05:42:45.693Z,5.75
2022-11-26T05:45:13.304Z,5.70
2022-11-26T05:47:40.950Z,6.13
2022-11-26T05:50:10.096Z,5.85
2022-11-26T05:52:39.070Z,4.72
2022-11-26T05:55:08.195Z,5.05
2022-11-26T05:57:35.780Z,4.90
2022-11-26T06:00:03.492Z,3.88
2022-11-26T06:02:39.795Z,3.35
2022-11-26T06:05:09.073Z,3.30
2022-11-26T06:07:40.511Z,3.60
2022-11-26T06:10:13.101Z,5.78
2022-11-26T06:12:40.701Z,4.65
2022-11-26T06:15:09.102Z,4.13
2022-11-26T06:17:36.816Z,4.85
2022-11-26T06:20:05.380Z,5.47
2022-11-26T06:22:37.400Z,5.22
2022-11-26T06:25:05.560Z,5.43
2022-11-26T06:27:35.524Z,5.53
2022-11-26T06:30:04.567Z,4.75
2022-11-26T06:32:33.081Z,5.93
2022-11-26T06:35:00.796Z,6.25
2022-11-26T06:37:28.457Z,7.90
2022-11-26T06:39:56.039Z,11.20
2022-11-26T06:42:23.623Z,8.52
2022-11-26T06:44:57.027Z,8.85
2022-11-26T06:47:27.440Z,10.40
2022-11-26T06:49:55.075Z,8.35
2022-11-26T06:52:22.659Z,9.68
2022-11-26T06:54:51.551Z,7.90
2022-11-26T06:57:19.144Z,7.95
2022-11-26T06:59:46.756Z,9.10
2022-11-26T07:02:15.750Z,9.35
2022-11-26T07:04:43.632Z,10.38
2022-11-26T07:07:11.329Z,8.80
2022-11-26T07:09:39.850Z,7.70
2022-11-26T07:12:07.661Z,7.72
2022-11-26T07:14:35.367Z,7.32
2022-11-26T07:17:02.989Z,7.88
2022-11-26T07:19:32.098Z,6.53
2022-11-26T07:21:59.756Z,6.90
2022-11-26T07:24:27.681Z,6.78
2022-11-26T07:26:56.116Z,5.97
2022-11-26T07:29:23.744Z,7.88
2022-11-26T07:31:51.434Z,14.23
2022-11-26T07:34:19.075Z,19.70
2022-11-26T07:36:48.080Z,14.02
2022-11-26T07:39:15.682Z,14.73
2022-11-26T07:41:43.264Z,9.73
2022-11-26T07:44:13.417Z,7.03
2022-11-26T07:46:41.554Z,5.93
2022-11-26T07:49:09.293Z,5.55
2022-11-26T07:51:39.239Z,6.80
2022-11-26T07:54:09.561Z,8.52
2022-11-26T07:56:37.579Z,7.93
2022-11-26T07:59:05.796Z,7.78
2022-11-26T08:01:34.025Z,7.95
2022-11-26T08:04:05.213Z,6.60
2022-11-26T08:06:33.091Z,8.63
2022-11-26T08:09:02.167Z,5.78
2022-11-26T08:11:32.762Z,6.25
2022-11-26T08:14:02.324Z,6.68
2022-11-26T08:16:30.396Z,7.03
2022-11-26T08:18:59.500Z,7.68
2022-11-26T08:21:27.660Z,7.57
2022-11-26T08:23:55.921Z,7.47
2022-11-26T08:26:32.959Z,7.50
2022-11-26T08:29:05.156Z,8.90
2022-11-26T08:36:05.985Z,9.38
2022-11-26T08:47:00.415Z,5.43
2022-11-26T08:49:28.266Z,7.43
2022-11-26T08:51:56.649Z,7.05
2022-11-26T08:54:25.031Z,5.80
2022-11-26T08:56:52.674Z,5.57
2022-11-26T08:59:22.840Z,5.00
2022-11-26T09:01:50.778Z,5.28
2022-11-26T09:04:19.784Z,4.95
2022-11-26T09:06:47.364Z,5.50
2022-11-26T09:09:15.446Z,5.38
2022-11-26T09:11:46.065Z,5.10
2022-11-26T09:14:14.542Z,5.20
2022-11-26T09:16:42.301Z,5.22
2022-11-26T09:19:11.718Z,5.30
2022-11-26T09:21:40.645Z,5.32
2022-11-26T09:24:08.865Z,4.13
2022-11-26T09:26:36.566Z,4.78
2022-11-26T09:29:05.145Z,4.95
2022-11-26T09:31:33.261Z,5.97
2022-11-26T09:34:01.978Z,4.20
2022-11-26T09:36:29.625Z,4.75
2022-11-26T09:38:59.679Z,4.32
2022-11-26T09:41:40.510Z,3.92
2022-11-26T09:44:25.280Z,4.22
2022-11-26T09:47:12.220Z,3.95
2022-11-26T09:49:45.533Z,4.40
2022-11-26T09:52:17.961Z,3.97
2022-11-26T09:54:49.167Z,4.22
2022-11-26T09:57:24.185Z,5.00
2022-11-26T09:59:54.196Z,5.28
2022-11-26T10:02:22.019Z,4.78
2022-11-26T10:04:49.810Z,6.93
2022-11-26T10:07:31.432Z,4.93
2022-11-26T10:10:09.171Z,11.23
2022-11-26T10:13:17.192Z,4.65
2022-11-26T10:15:50.369Z,4.70
2022-11-26T10:18:29.519Z,4.65
2022-11-26T10:21:08.871Z,5.07
2022-11-26T10:23:45.275Z,4.47
2022-11-26T10:26:28.367Z,4.57
2022-11-26T10:29:07.329Z,5.03
2022-11-26T10:31:35.399Z,4.65
2022-11-26T10:34:09.761Z,5.55
2022-11-26T10:36:39.666Z,5.20
2022-11-26T10:39:08.600Z,4.70
2022-11-26T10:41:38.737Z,4.82
2022-11-26T10:44:28.849Z,3.65
2022-11-26T10:46:56.580Z,3.70
2022-11-26T10:49:25.936Z,4.05
2022-11-26T10:51:57.280Z,4.28
2022-11-26T10:54:29.019Z,4.15
2022-11-26T10:57:04.904Z,3.28
2022-11-26T10:59:37.913Z,3.30
2022-11-26T11:02:30.397Z,3.65
2022-11-26T11:05:02.157Z,4.80
2022-11-26T11:07:35.108Z,3.90
2022-11-26T11:10:05.224Z,4.80
2022-11-26T11:12:34.247Z,2.83
2022-11-26T11:15:20.508Z,3.90
2022-11-26T11:17:54.565Z,2.42
2022-11-26T11:20:30.127Z,3.00
2022-11-26T11:23:01.080Z,2.13
2022-11-26T11:25:31.429Z,2.00
2022-11-26T11:28:11.957Z,2.72
2022-11-26T11:30:42.103Z,2.13
2022-11-26T11:33:28.829Z,3.05
2022-11-26T11:36:05.670Z,3.78
2022-11-26T11:38:35.494Z,2.15
2022-11-26T11:41:12.509Z,2.47
2022-11-26T11:43:41.651Z,2.40
2022-11-26T11:46:25.192Z,2.35
2022-11-26T11:49:01.175Z,2.47
2022-11-26T11:51:39.250Z,2.47
2022-11-26T11:54:16.530Z,2.25
2022-11-26T11:56:50.533Z,1.88
2022-11-26T11:59:47.834Z,1.98
2022-11-26T12:02:51.526Z,2.33
2022-11-26T12:05:43.699Z,2.28
2022-11-26T12:08:24.815Z,1.98
2022-11-26T12:11:05.270Z,2.67
2022-11-26T12:13:39.973Z,2.42
2022-11-26T12:16:13.102Z,2.53
2022-11-26T12:18:47.540Z,3.30
2022-11-26T12:21:17.384Z,2.13
2022-11-26T12:23:50.617Z,1.92
2022-11-26T12:26:23.087Z,2.20
2022-11-26T12:28:56.080Z,2.97
2022-11-26T12:31:30.625Z,1.98
2022-11-26T12:34:08.528Z,3.70
2022-11-26T12:36:45.441Z,3.20
2022-11-26T12:39:19.382Z,3.38
2022-11-26T12:41:56.499Z,3.10
2022-11-26T12:44:29.894Z,4.82
2022-11-26T12:49:39.389Z,4.15
2022-11-26T12:52:25.714Z,2.20
2022-11-26T12:55:02.355Z,2.28
2022-11-26T12:57:35.073Z,1.40
2022-11-26T13:00:06.967Z,1.80
2022-11-26T13:02:39.059Z,1.95
2022-11-26T13:05:07.769Z,2.65
2022-11-26T13:07:50.031Z,2.97
2022-11-26T13:10:27.765Z,2.20
2022-11-26T13:13:03.905Z,1.77
2022-11-26T13:15:38.592Z,2.50
2022-11-26T13:18:14.441Z,2.95
2022-11-26T13:20:59.770Z,2.70
2022-11-26T13:23:42.106Z,2.08
2022-11-26T13:26:27.048Z,2.03
2022-11-26T13:29:23.716Z,3.00
2022-11-26T13:32:12.720Z,3.28
2022-11-26T13:34:59.841Z,2.65
2022-11-26T13:37:47.946Z,2.65
2022-11-26T13:40:48.262Z,2.20
2022-11-26T13:43:37.822Z,2.00
2022-11-26T13:46:17.599Z,2.10
2022-11-26T13:48:57.057Z,3.05
2022-11-26T13:51:32.687Z,2.53
2022-11-26T13:54:07.718Z,2.40
2022-11-26T13:56:37.401Z,2.55
2022-11-26T13:59:16.152Z,2.60
2022-11-26T14:01:44.009Z,2.60
2022-11-26T14:04:14.071Z,2.38
2022-11-26T14:07:20.196Z,2.55
2022-11-26T14:09:50.974Z,2.00
2022-11-26T14:12:19.773Z,2.75
2022-11-26T14:14:48.950Z,2.65
2022-11-26T14:17:19.787Z,2.17
2022-11-26T14:20:01.604Z,2.28
2022-11-26T14:22:33.547Z,2.00
2022-11-26T14:25:02.963Z,2.17
2022-11-26T14:27:33.378Z,4.57
2022-11-26T14:30:14.680Z,2.80
2022-11-26T14:32:49.086Z,2.40
2022-11-26T14:35:21.932Z,1.92
2022-11-26T14:37:56.620Z,4.32
2022-11-26T14:40:26.713Z,2.30
2022-11-26T14:43:15.716Z,1.90
2022-11-26T14:45:44.421Z,2.80
2022-11-26T14:48:27.734Z,2.08
2022-11-26T14:50:57.501Z,3.72
2022-11-26T14:53:29.107Z,4.13
2022-11-26T14:55:57.938Z,3.45
2022-11-26T14:58:32.823Z,3.33
2022-11-26T15:01:07.341Z,9.07
2022-11-26T15:03:35.335Z,10.20
2022-11-26T15:06:03.273Z,7.70
2022-11-26T15:08:32.198Z,4.30
2022-11-26T15:11:03.357Z,3.55
2022-11-26T15:13:37.440Z,4.35
2022-11-26T15:16:27.556Z,3.00
2022-11-26T15:18:56.549Z,3.20
2022-11-26T15:21:26.099Z,2.22
2022-11-26T15:23:59.114Z,2.40
2022-11-26T15:26:32.689Z,2.65
2022-11-26T15:31:40.558Z,2.42
2022-11-26T15:34:12.632Z,2.53
2022-11-26T15:36:40.452Z,2.42
2022-11-26T15:39:25.334Z,2.35
2022-11-26T15:41:55.178Z,2.50
2022-11-26T15:44:26.854Z,2.55
2022-11-26T15:46:57.168Z,2.80
2022-11-26T15:49:28.203Z,2.42
2022-11-26T15:52:00.809Z,2.70
2022-11-26T15:54:49.625Z,2.70
2022-11-26T15:57:25.411Z,5.25
2022-11-26T15:59:58.382Z,3.95
2022-11-26T16:02:28.167Z,3.35
2022-11-26T16:04:57.916Z,3.15
2022-11-26T16:07:28.104Z,3.95
2022-11-26T16:10:21.358Z,3.08
2022-11-26T16:13:08.874Z,4.20
2022-11-26T16:15:37.466Z,3.42
2022-11-26T16:18:14.805Z,3.22
2022-11-26T16:20:43.162Z,6.72
2022-11-26T16:23:21.437Z,7.30
2022-11-26T16:26:08.993Z,7.20
2022-11-26T16:28:37.042Z,5.57
2022-11-26T16:31:04.800Z,4.93
2022-11-26T16:33:32.497Z,4.22
2022-11-26T16:36:01.639Z,5.03
2022-11-26T16:38:30.122Z,4.30
2022-11-26T16:40:57.711Z,3.00
2022-11-26T16:43:26.763Z,3.72
2022-11-26T16:45:56.158Z,5.38
2022-11-26T16:48:28.521Z,4.22
2022-11-26T16:50:57.131Z,4.05
2022-11-26T16:53:24.981Z,5.32
2022-11-26T16:55:54.827Z,3.53
2022-11-26T16:58:29.234Z,3.40
2022-11-26T17:00:57.738Z,2.88
2022-11-26T17:03:27.496Z,3.40
2022-11-26T17:05:57.506Z,3.13
2022-11-26T17:08:25.188Z,2.58
2022-11-26T17:10:54.810Z,3.15
2022-11-26T17:13:22.624Z,3.50
2022-11-26T17:15:52.400Z,4.15
2022-11-26T17:18:23.399Z,5.88
2022-11-26T17:20:52.720Z,5.45
2022-11-26T17:23:20.359Z,7.35
2022-11-26T17:25:52.179Z,6.85
2022-11-26T17:28:20.964Z,9.88
2022-11-26T17:30:48.656Z,8.85
2022-11-26T17:33:17.736Z,6.05
2022-11-26T17:35:45.639Z,5.80
2022-11-26T17:38:16.137Z,5.50
2022-11-26T17:40:44.784Z,5.40
2022-11-26T17:43:12.767Z,5.38
2022-11-26T17:45:42.876Z,5.50
2022-11-26T17:48:13.846Z,4.93
2022-11-26T17:50:43.242Z,6.55
2022-11-26T17:53:10.913Z,5.28
2022-11-26T17:55:39.466Z,4.97
2022-11-26T17:58:07.268Z,7.30
2022-11-26T18:00:34.942Z,5.72
2022-11-26T18:03:02.688Z,5.18
2022-11-26T18:05:30.630Z,5.22
2022-11-26T18:07:59.613Z,5.05
2022-11-26T18:10:27.417Z,5.40
2022-11-26T18:12:55.255Z,5.63
2022-11-26T18:15:24.927Z,7.15
2022-11-26T18:17:54.651Z,8.25
2022-11-26T18:20:24.954Z,9.05
2022-11-26T18:22:53.510Z,9.18
2022-11-26T18:25:22.613Z,8.20
2022-11-26T18:27:50.288Z,11.70
2022-11-26T18:30:18.730Z,7.70
2022-11-26T18:32:46.474Z,6.55
2022-11-26T18:35:14.495Z,6.80
2022-11-26T18:37:42.601Z,6.40
2022-11-26T18:40:14.421Z,6.07
2022-11-26T18:42:43.554Z,6.90
2022-11-26T18:45:14.682Z,7.43
2022-11-26T18:47:42.335Z,7.80
2022-11-26T18:50:10.579Z,8.05
2022-11-26T18:52:38.785Z,9.93
2022-11-26T18:55:08.011Z,9.70
2022-11-26T18:57:35.642Z,6.43
2022-11-26T19:00:06.833Z,7.40
2022-11-26T19:02:34.851Z,8.10
2022-11-26T19:05:03.538Z,8.57
2022-11-26T19:07:33.015Z,6.65
2022-11-26T19:10:00.806Z,10.80
2022-11-26T19:12:28.390Z,9.30
2022-11-26T19:14:56.021Z,6.97
2022-11-26T19:17:24.954Z,7.20
2022-11-26T19:19:52.550Z,6.93
2022-11-26T19:22:20.178Z,6.43
2022-11-26T19:24:49.353Z,6.40
2022-11-26T19:27:16.978Z,5.95
2022-11-26T19:29:44.582Z,5.65
2022-11-26T19:32:12.305Z,5.18
2022-11-26T19:34:41.336Z,5.97
2022-11-26T19:37:08.941Z,6.28
2022-11-26T19:39:37.358Z,6.53
2022-11-26T19:42:05.413Z,6.53
2022-11-26T19:44:35.208Z,7.03
2022-11-26T19:47:03.200Z,6.95
2022-11-26T19:49:30.883Z,7.78
2022-11-26T19:51:59.925Z,8.85
2022-11-26T19:54:27.938Z,10.52
2022-11-26T19:56:55.583Z,10.40
2022-11-26T19:59:23.217Z,9.38
2022-11-26T20:01:50.964Z,8.70
2022-11-26T20:04:19.492Z,7.78
2022-11-26T20:06:47.400Z,7.75
2022-11-26T20:09:16.372Z,8.18
2022-11-26T20:11:44.506Z,8.40
2022-11-26T20:14:14.416Z,8.48
2022-11-26T20:16:44.128Z,9.32
2022-11-26T20:19:13.170Z,9.18
2022-11-26T20:21:40.990Z,9.57
2022-11-26T20:24:12.415Z,10.00
2022-11-26T20:26:43.259Z,9.70
2022-11-26T20:29:13.572Z,8.55
2022-11-26T20:31:44.497Z,9.40
2022-11-26T20:34:14.125Z,10.45
2022-11-26T20:36:41.725Z,11.93
2022-11-26T20:39:13.496Z,10.30
2022-11-26T20:41:42.816Z,9.20
2022-11-26T20:44:10.999Z,7.63
2022-11-26T20:46:38.951Z,6.82
2022-11-26T20:49:07.349Z,6.43
2022-11-26T20:51:35.212Z,7.15
2022-11-26T20:54:03.267Z,7.72
2022-11-26T20:56:31.130Z,7.07
2022-11-26T20:59:00.060Z,11.13
2022-11-26T21:01:29.323Z,11.82
2022-11-26T21:03:57.385Z,8.68
2022-11-26T21:06:30.183Z,8.13
2022-11-26T21:09:00.332Z,9.43
2022-11-26T21:11:28.161Z,9.35
2022-11-26T21:13:55.722Z,9.93
2022-11-26T21:16:24.660Z,11.88
2022-11-26T21:18:54.003Z,14.82
2022-11-26T21:21:21.795Z,13.73
2022-11-26T21:23:49.386Z,11.65
2022-11-26T21:26:18.818Z,10.30
2022-11-26T21:28:51.131Z,9.70
2022-11-26T21:31:19.399Z,9.18
2022-11-26T21:33:54.055Z,9.25
2022-11-26T21:36:21.712Z,9.10
2022-11-26T21:38:50.120Z,8.52
2022-11-26T21:41:19.789Z,12.25
2022-11-26T21:43:49.437Z,13.23
2022-11-26T21:46:19.650Z,12.90
2022-11-26T21:48:48.719Z,11.73
2022-11-26T21:51:17.854Z,17.70
2022-11-26T21:53:45.825Z,25.70
2022-11-26T21:56:17.116Z,22.13
2022-11-26T21:58:45.066Z,16.38
2022-11-26T22:01:13.975Z,13.80
2022-11-26T22:03:43.133Z,10.13
2022-11-26T22:06:12.764Z,10.05
2022-11-26T22:08:40.738Z,9.20
2022-11-26T22:11:10.018Z,9.27
2022-11-26T22:13:37.836Z,9.60
2022-11-26T22:16:06.480Z,10.88
2022-11-26T22:18:36.463Z,9.63
2022-11-26T22:21:04.385Z,10.25
2022-11-26T22:23:33.410Z,10.13
2022-11-26T22:26:01.062Z,9.82
2022-11-26T22:28:30.332Z,10.43
2022-11-26T22:30:58.200Z,12.23
2022-11-26T22:33:25.896Z,13.63
2022-11-26T22:35:53.470Z,12.68
2022-11-26T22:38:21.054Z,14.02
2022-11-26T22:40:50.066Z,12.40
2022-11-26T22:43:17.749Z,12.48
2022-11-26T22:45:45.429Z,12.70
2022-11-26T22:48:13.165Z,11.25
2022-11-26T22:50:40.728Z,11.30
2022-11-26T22:53:08.384Z,11.27
2022-11-26T22:55:36.080Z,10.07
2022-11-26T22:58:05.033Z,9.95
2022-11-26T23:00:47.494Z,9.20
2022-11-26T23:03:16.284Z,10.55
2022-11-26T23:05:44.351Z,10.50
2022-11-26T23:08:12.623Z,10.32
2022-11-26T23:10:40.829Z,10.60
2022-11-26T23:13:10.591Z,9.43
2022-11-26T23:15:44.527Z,10.57
2022-11-26T23:18:13.649Z,10.73
2022-11-26T23:20:42.317Z,10.73
2022-11-26T23:23:10.653Z,11.65
2022-11-26T23:25:39.800Z,10.55
2022-11-26T23:28:08.000Z,10.60
2022-11-26T23:30:37.122Z,11.15
2022-11-26T23:33:04.806Z,11.55
2022-11-26T23:35:32.456Z,11.95
2022-11-26T23:38:00.067Z,11.25
2022-11-26T23:40:27.705Z,11.60
2022-11-26T23:42:55.515Z,11.30
2022-11-26T23:45:23.071Z,12.27
2022-11-26T23:47:52.097Z,12.93
2022-11-26T23:50:19.836Z,12.88
2022-11-26T23:52:47.436Z,12.68
2022-11-26T23:55:16.418Z,11.68
2022-11-26T23:57:44.081Z,12.95
